AirNav   Pilot Hours Calculator
 
 1082 users online  

88C Palmyra Municipal Airport
Palmyra, Wisconsin, USA

GOING TO PALMYRA?


FAA INFORMATION EFFECTIVE 22 APRIL 2021

Location

FAA Identifier: 88C
Lat/Long: 42-53-00.7600N 088-35-59.7000W
42-53.012667N 088-35.995000W
42.8835444,-88.5999167
(estimated)
Elevation: 851 ft. / 259.4 m (surveyed)
Variation: 01W (1985)
Time zone: UTC -5 (UTC -6 during Standard Time)
Zip code: 53156

Airport Operations

Airport use: Open to the public
Activation date: 05/1949
Control tower: no
ARTCC: CHICAGO CENTER
FSS: GREEN BAY FLIGHT SERVICE STATION
NOTAMs facility: GRB (NOTAM-D service available)
Attendance: UNATNDD
Wind indicator: lighted
Segmented circle: yes
Lights: ACTVT LIRL RY 09/27 - CTAF.

Airport Communications

CTAF: 122.9
WX AWOS-3PT at 57C (11 nm SE): 118.125 (262-642-1845)
WX AWOS-3 at BUU (17 nm SE): 125.275 (262-757-0907)
WX AWOS-3 at RYV (18 nm N): 119.975 (920-261-0734)
WX AWOS-3 at UES (19 nm NE): 118.875 (262-521-5226)

Nearby radio navigation aids

VOR radial/distance  VOR name  Freq  Var
BAEr223/19.7BADGER VOR/DME116.4002E
JVLr046/29.6JANESVILLE VOR/DME114.3003E
MSNr113/36.0MADISON VORTAC108.6003E
BJBr214/(38.4)WEST BEND VOR109.8001W

 
NDB name  Hdg/Dist  Freq  Var  ID
ROCK RIVER163/18.337101WRYV .-. -.-- ...-
JUNEAU173/33.034401WUNU ..- -. ..-

Airport Services

Parking: tiedowns
Airframe service: NONE
Powerplant service: NONE
Bottled oxygen: NONE
Bulk oxygen: NONE

Runway Information

Runway 9/27

Dimensions: 2800 x 200 ft. / 853 x 61 m
Surface: turf, in good condition
Runway edge lights: low intensity
Runway edge markings: RWY 09 /27 MKD BY YELLOW CONES.
RUNWAY 9  RUNWAY 27
Latitude: 42-53.008667N42-53.016667N
Longitude: 088-36.308333W088-35.681667W
Elevation: 849.0 ft.850.5 ft.
Traffic pattern: leftleft
Runway heading: 090 magnetic, 089 true270 magnetic, 269 true
Runway end identifier lights: nono
Touchdown point: yes, no lightsyes, no lights
Obstructions: 29 ft. trees, 175 ft. from runway, 115 ft. left of centerline, 6:1 slope to clear35 ft. tree, 700 ft. from runway, 200 ft. left of centerline, 20:1 slope to clear

Airport Ownership and Management from official FAA records

Ownership: Publicly-owned
Owner: PALMYRA TOWNSHIP
P O BOX 163
PALMYRA, WI 53156
Phone 262-495-4342
Manager: BOB ZERULL
PO BOX 348
PALMYRA, WI 53156
Phone 262-361-2911

Airport Operational Statistics

Aircraft based on the field: 63
Single engine airplanes: 62
Helicopters: 1
    
Aircraft operations: avg 38/day *
57% local general aviation
43% transient general aviation
* for 12-month period ending 28 August 2019

Additional Remarks

FOR CD CTC CHICAGO ARTCC AT 630-906-8921.

Instrument Procedures

There are no published instrument procedures at 88C.

Some nearby airports with instrument procedures:

61C - Fort Atkinson Municipal Airport (11 nm NW)
57C - East Troy Municipal Airport (11 nm SE)
KBUU - Burlington Municipal Airport (17 nm SE)
KRYV - Watertown Municipal Airport (18 nm N)
KUES - Waukesha County Airport (19 nm NE)
C02 - Grand Geneva Resort Airport (19 nm SE)
 
Loc | Ops | Rwys | IFR | FBO | Links
Com | Nav | Svcs | Stats | Notes
Area around 88C (Palmyra Municipal Airport)
 
Road maps at: MapQuest Bing Google
 
Aerial photo
WARNING: Photo may not be current or correct
Aerial photo of 88C (Palmyra Municipal Airport)
Photo by Dick Adduci
Photo taken 21-Apr-2012
looking northwest.

Do you have a better or more recent aerial photo of Palmyra Municipal Airport that you would like to share? If so, please send us your photo.

 
Sectional chart

 
Airport distance calculator
Flying to Palmyra Municipal Airport? Find the distance to fly.

From to 88C

Sunrise and sunset
Times for 09-May-2021
 Local
(UTC-5)
 Zulu
(UTC)
Morning civil twilight05:0710:07
Sunrise05:3910:39
Sunset20:0301:03
Evening civil twilight20:3401:34

Current date and time
Zulu (UTC)  10-May-2021 00:50:55
Local (UTC-5)  09-May-2021 19:50:55
 
METAR
K57C 
11nm SE 
100035Z AUTO 08005KT 10SM CLR 10/M02 A3001 RMK AO2 T00961020
KRYV 
18nm N 
100035Z AUTO 10008KT 10SM BKN080 OVC110 11/M01 A3000 RMK AO2 T01061006
KBUU 
18nm SE 
100035Z AUTO 07007KT 10SM 09/00 A3001 RMK AO2 T00921005 PWINO
KUES 
22nm E 
092345Z 08006KT 10SM SCT110 09/M03 A3001
TAF
KUES 
22nm E 
091735Z 0918/1018 04011G19KT P6SM FEW050 SCT250 FM092200 04011KT P6SM SCT050 FM100300 03006KT P6SM BKN050 FM101400 01006KT P6SM BKN050
KJVL 
24nm SW 
092030Z 0921/1018 04012G22KT P6SM FEW050 SCT250 FM101000 06005KT P6SM BKN045 FM101400 05007KT P6SM SCT050
NOTAMs
Click for the latest NOTAMs
NOTAMs are issued by the DoD/FAA and will open in a separate window not controlled by AirNav.

 

 
 

Would you like to see your business listed on this page?

 If your business provides an interesting product or service to pilots, flight crews, aircraft, or users of the Palmyra Municipal Airport, you should consider listing it here.  To start the listing process, click on the button below
 
Add a business
 

Other Pages about Palmyra Municipal Airport

Page from the Wisconsin airport directory (PDF)
 
Update a link
 
Copyright © AirNav, LLC. All rights reserved. Privacy Policy  Contact